createdAt,value
2023-01-08T00:01:18.862Z,5.53
2023-01-08T00:03:49.557Z,5.47
2023-01-08T00:06:22.169Z,4.70
2023-01-08T00:08:52.787Z,5.15
2023-01-08T00:11:23.306Z,6.32
2023-01-08T00:13:53.858Z,12.70
2023-01-08T00:16:26.080Z,12.10
2023-01-08T00:18:56.615Z,15.48
2023-01-08T00:21:27.426Z,15.13
2023-01-08T00:23:58.179Z,16.85
2023-01-08T00:26:28.783Z,24.25
2023-01-08T00:28:59.345Z,21.13
2023-01-08T00:31:31.620Z,10.32
2023-01-08T00:34:03.507Z,8.98
2023-01-08T00:36:34.819Z,6.80
2023-01-08T00:39:05.403Z,6.95
2023-01-08T00:41:36.328Z,5.95
2023-01-08T00:44:07.128Z,6.13
2023-01-08T00:46:39.569Z,7.03
2023-01-08T00:49:10.706Z,6.38
2023-01-08T00:51:41.367Z,7.00
2023-01-08T00:54:13.409Z,7.20
2023-01-08T00:57:19.927Z,8.43
2023-01-08T00:59:50.829Z,8.30
2023-01-08T01:02:23.247Z,7.15
2023-01-08T01:04:54.525Z,7.22
2023-01-08T01:07:25.386Z,7.10
2023-01-08T01:09:56.591Z,17.65
2023-01-08T01:12:28.198Z,10.25
2023-01-08T01:15:02.473Z,7.43
2023-01-08T01:17:35.937Z,7.63
2023-01-08T01:20:07.143Z,8.68
2023-01-08T01:22:38.665Z,7.60
2023-01-08T01:25:10.512Z,7.80
2023-01-08T01:27:41.282Z,6.85
2023-01-08T01:30:12.982Z,6.22
2023-01-08T01:32:45.487Z,8.07
2023-01-08T01:35:16.333Z,9.43
2023-01-08T01:37:49.100Z,7.20
2023-01-08T01:40:20.165Z,6.55
2023-01-08T01:42:51.383Z,6.50
2023-01-08T01:45:24.308Z,7.32
2023-01-08T01:48:01.077Z,8.93
2023-01-08T01:50:35.074Z,7.20
2023-01-08T01:53:09.215Z,6.40
2023-01-08T01:55:43.364Z,7.38
2023-01-08T01:58:18.556Z,6.95
2023-01-08T02:00:49.771Z,6.65
2023-01-08T02:03:26.143Z,6.30
2023-01-08T02:06:03.923Z,5.43
2023-01-08T02:08:45.144Z,6.53
2023-01-08T02:11:20.957Z,5.03
2023-01-08T02:13:58.934Z,5.47
2023-01-08T02:16:35.828Z,5.25
2023-01-08T02:19:17.669Z,6.18
2023-01-08T02:22:04.593Z,5.50
2023-01-08T02:24:50.649Z,5.57
2023-01-08T02:27:27.851Z,5.38
2023-01-08T02:30:00.225Z,4.63
2023-01-08T02:32:35.436Z,5.20
2023-01-08T02:35:24.353Z,6.30
2023-01-08T02:37:55.159Z,6.15
2023-01-08T02:40:33.120Z,5.30
2023-01-08T02:43:13.463Z,5.90
2023-01-08T02:45:49.729Z,4.90
2023-01-08T02:48:29.355Z,5.47
2023-01-08T02:51:05.460Z,5.45
2023-01-08T02:53:40.521Z,5.55
2023-01-08T02:56:16.512Z,6.28
2023-01-08T02:58:50.156Z,7.00
2023-01-08T03:01:23.326Z,7.90
2023-01-08T03:04:14.863Z,9.43
2023-01-08T03:06:46.448Z,10.43
2023-01-08T03:09:18.620Z,9.38
2023-01-08T03:11:56.748Z,9.95
2023-01-08T03:14:32.159Z,9.98
2023-01-08T03:17:10.446Z,12.32
2023-01-08T03:19:45.862Z,12.93
2023-01-08T03:22:20.831Z,11.70
2023-01-08T03:24:56.580Z,11.68
2023-01-08T03:27:30.385Z,10.98
2023-01-08T03:30:03.221Z,12.23
2023-01-08T03:32:35.299Z,12.88
2023-01-08T03:35:10.738Z,12.57
2023-01-08T03:37:45.388Z,12.20
2023-01-08T03:40:20.928Z,12.40
2023-01-08T03:42:51.916Z,11.32
2023-01-08T03:45:27.343Z,12.10
2023-01-08T03:48:00.491Z,11.32
2023-01-08T03:50:35.973Z,12.43
2023-01-08T03:53:06.931Z,13.00
2023-01-08T03:55:38.049Z,13.25
2023-01-08T03:58:09.250Z,14.02
2023-01-08T04:00:41.749Z,17.00
2023-01-08T04:03:12.698Z,16.70
2023-01-08T04:05:46.345Z,16.75
2023-01-08T04:08:18.018Z,14.85
2023-01-08T04:10:48.934Z,10.35
2023-01-08T04:13:19.641Z,10.02
2023-01-08T04:15:53.813Z,10.73
2023-01-08T04:18:25.112Z,8.25
2023-01-08T04:20:56.223Z,8.50
2023-01-08T04:23:27.261Z,9.30
2023-01-08T04:26:09.931Z,7.97
2023-01-08T04:28:48.206Z,7.50
2023-01-08T04:31:24.942Z,8.73
2023-01-08T04:33:59.485Z,8.00
2023-01-08T04:36:34.417Z,7.07
2023-01-08T04:39:08.516Z,7.63
2023-01-08T04:41:43.977Z,7.15
2023-01-08T04:44:18.693Z,6.47
2023-01-08T04:46:56.357Z,9.13
2023-01-08T04:49:30.071Z,7.30
2023-01-08T04:52:03.707Z,7.55
2023-01-08T04:54:37.058Z,6.60
2023-01-08T04:57:10.026Z,6.78
2023-01-08T04:59:47.807Z,16.15
2023-01-08T05:02:23.408Z,7.38
2023-01-08T05:04:56.750Z,6.13
2023-01-08T05:07:33.547Z,6.65
2023-01-08T05:10:07.669Z,6.20
2023-01-08T05:12:40.509Z,6.85
2023-01-08T05:15:14.701Z,7.28
2023-01-08T05:17:49.406Z,11.25
2023-01-08T05:20:22.191Z,6.38
2023-01-08T05:22:54.982Z,5.57
2023-01-08T05:25:29.005Z,6.20
2023-01-08T05:28:02.028Z,6.30
2023-01-08T05:30:38.592Z,6.47
2023-01-08T05:33:12.957Z,5.28
2023-01-08T05:35:45.987Z,7.20
2023-01-08T05:38:19.702Z,8.23
2023-01-08T05:40:56.803Z,7.07
2023-01-08T05:43:32.212Z,6.88
2023-01-08T05:46:06.210Z,6.97
2023-01-08T05:48:41.410Z,7.40
2023-01-08T05:51:13.948Z,7.65
2023-01-08T05:53:49.943Z,7.53
2023-01-08T05:56:22.623Z,5.93
2023-01-08T05:58:59.262Z,6.05
2023-01-08T06:01:36.476Z,5.45
2023-01-08T06:04:11.399Z,7.43
2023-01-08T06:06:45.155Z,6.55
2023-01-08T06:09:19.903Z,6.55
2023-01-08T06:12:07.253Z,6.93
2023-01-08T06:14:57.826Z,6.40
2023-01-08T06:17:46.624Z,25.13
2023-01-08T06:20:40.078Z,20.88
2023-01-08T06:23:11.382Z,6.82
2023-01-08T06:25:42.335Z,6.32
2023-01-08T06:28:15.993Z,5.97
2023-01-08T06:31:05.346Z,5.85
2023-01-08T06:33:36.583Z,8.18
2023-01-08T06:36:09.738Z,7.45
2023-01-08T06:38:42.727Z,7.57
2023-01-08T06:41:32.726Z,9.02
2023-01-08T06:44:04.808Z,13.17
2023-01-08T06:46:39.087Z,13.48
2023-01-08T06:49:09.982Z,23.52
2023-01-08T06:51:42.981Z,11.30
2023-01-08T06:54:32.229Z,12.32
2023-01-08T06:57:25.291Z,10.95
2023-01-08T06:59:57.009Z,9.68
2023-01-08T07:02:28.312Z,9.68
2023-01-08T07:05:04.208Z,9.63
2023-01-08T07:07:36.473Z,9.57
2023-01-08T07:10:08.185Z,10.07
2023-01-08T07:12:38.739Z,9.32
2023-01-08T07:15:27.203Z,10.18
2023-01-08T07:17:58.019Z,10.85
2023-01-08T07:20:28.591Z,11.15
2023-01-08T07:23:04.842Z,11.55
2023-01-08T07:25:53.679Z,13.88
2023-01-08T07:28:24.442Z,12.63
2023-01-08T07:30:56.007Z,13.50
2023-01-08T07:33:26.752Z,14.40
2023-01-08T07:35:57.584Z,15.50
2023-01-08T07:38:30.294Z,14.43
2023-01-08T07:41:01.130Z,14.85
2023-01-08T07:43:32.319Z,14.02
2023-01-08T07:46:05.790Z,14.82
2023-01-08T07:48:36.502Z,16.75
2023-01-08T07:54:20.301Z,17.42
2023-01-08T07:56:51.025Z,18.08
2023-01-08T07:59:39.465Z,16.98
2023-01-08T08:03:09.507Z,16.42
2023-01-08T08:09:24.217Z,16.55
2023-01-08T08:27:24.709Z,13.93
2023-01-08T08:32:32.847Z,13.30
2023-01-08T08:35:21.732Z,20.05
2023-01-08T08:37:53.670Z,19.08
2023-01-08T08:40:29.668Z,19.65
2023-01-08T08:43:10.617Z,28.13
2023-01-08T08:46:57.422Z,28.45
2023-01-08T08:49:28.152Z,18.50
2023-01-08T08:52:10.838Z,27.17
2023-01-08T08:54:42.591Z,30.83
2023-01-08T08:57:13.488Z,36.78
2023-01-08T08:59:45.746Z,34.10
2023-01-08T09:02:16.522Z,26.60
2023-01-08T09:04:52.223Z,19.80
2023-01-08T09:07:41.272Z,18.48
2023-01-08T09:10:12.593Z,17.25
2023-01-08T09:12:43.445Z,20.77
2023-01-08T09:22:43.032Z,22.00
2023-01-08T09:25:16.417Z,22.23
2023-01-08T09:27:52.209Z,17.20
2023-01-08T09:30:24.185Z,12.20
2023-01-08T09:33:02.880Z,13.25
2023-01-08T09:35:43.951Z,22.08
2023-01-08T09:38:22.041Z,19.17
2023-01-08T09:41:46.075Z,27.15
2023-01-08T09:44:23.655Z,43.47
2023-01-08T09:46:57.525Z,43.83
2023-01-08T09:49:40.346Z,29.05
2023-01-08T09:52:15.443Z,23.67
2023-01-08T09:55:00.929Z,23.83
2023-01-08T09:58:04.469Z,15.13
2023-01-08T10:00:41.822Z,11.98
2023-01-08T10:03:27.656Z,10.43
2023-01-08T10:06:12.036Z,9.02
2023-01-08T10:08:43.028Z,7.25
2023-01-08T10:11:17.903Z,8.75
2023-01-08T10:13:53.186Z,11.35
2023-01-08T10:16:31.343Z,11.20
2023-01-08T10:19:07.082Z,12.45
2023-01-08T10:21:46.213Z,37.60
2023-01-08T10:24:20.214Z,29.17
2023-01-08T10:26:57.520Z,12.13
2023-01-08T10:29:43.210Z,13.13
2023-01-08T10:32:21.347Z,7.38
2023-01-08T10:34:58.951Z,5.78
2023-01-08T10:37:32.043Z,6.10
2023-01-08T10:40:12.078Z,5.30
2023-01-08T10:46:18.123Z,5.43
2023-01-08T10:48:55.884Z,4.85
2023-01-08T10:51:28.293Z,5.55
2023-01-08T10:54:02.106Z,4.80
2023-01-08T10:56:55.384Z,5.72
2023-01-08T10:59:29.575Z,6.40
2023-01-08T11:02:06.006Z,6.20
2023-01-08T11:11:55.091Z,7.70
2023-01-08T11:14:30.914Z,8.80
2023-01-08T11:17:05.308Z,7.43
2023-01-08T11:19:38.333Z,7.50
2023-01-08T11:22:20.868Z,12.52
2023-01-08T11:24:58.922Z,16.95
2023-01-08T11:27:33.650Z,17.58
2023-01-08T11:30:14.193Z,21.02
2023-01-08T11:33:22.268Z,29.40
2023-01-08T11:36:03.590Z,14.55
2023-01-08T11:38:35.514Z,13.30
2023-01-08T11:41:21.147Z,9.57
2023-01-08T11:44:43.079Z,10.20
2023-01-08T11:47:21.189Z,20.65
2023-01-08T11:50:12.820Z,41.60
2023-01-08T11:52:52.756Z,69.15
2023-01-08T11:55:42.803Z,60.30
2023-01-08T12:01:14.160Z,12.18
2023-01-08T12:03:49.889Z,7.28
2023-01-08T12:06:31.349Z,6.60
2023-01-08T12:09:21.562Z,7.15
2023-01-08T12:11:59.611Z,7.07
2023-01-08T12:14:58.972Z,6.80
2023-01-08T12:17:50.639Z,6.53
2023-01-08T12:20:32.446Z,19.58
2023-01-08T12:23:16.335Z,17.77
2023-01-08T12:26:01.895Z,11.50
2023-01-08T12:28:53.341Z,14.40
2023-01-08T12:32:01.849Z,16.55
2023-01-08T12:34:42.389Z,8.43
2023-01-08T12:37:24.077Z,8.32
2023-01-08T12:40:08.071Z,8.75
2023-01-08T12:42:47.250Z,8.15
2023-01-08T12:45:27.447Z,7.97
2023-01-08T12:48:37.436Z,6.90
2023-01-08T12:51:18.837Z,6.78
2023-01-08T12:54:03.404Z,5.95
2023-01-08T12:56:41.384Z,5.80
2023-01-08T12:59:25.955Z,5.72
2023-01-08T13:02:05.795Z,6.85
2023-01-08T13:04:44.289Z,6.27
2023-01-08T13:07:22.355Z,6.80
2023-01-08T13:10:01.838Z,6.22
2023-01-08T13:12:38.347Z,16.85
2023-01-08T13:15:20.032Z,93.50
2023-01-08T13:17:52.484Z,45.20
2023-01-08T13:20:28.786Z,15.93
2023-01-08T13:23:12.058Z,11.48
2023-01-08T13:25:59.958Z,9.82
2023-01-08T13:28:45.224Z,8.48
2023-01-08T13:31:33.798Z,10.15
2023-01-08T13:34:18.298Z,19.98
2023-01-08T13:37:02.911Z,36.75
2023-01-08T13:39:39.194Z,43.83
2023-01-08T13:42:32.423Z,33.55
2023-01-08T13:45:12.340Z,17.63
2023-01-08T13:47:47.676Z,10.30
2023-01-08T13:50:22.928Z,8.18
2023-01-08T13:53:00.914Z,7.78
2023-01-08T13:55:38.861Z,7.13
2023-01-08T13:58:19.120Z,7.55
2023-01-08T14:04:39.015Z,11.23
2023-01-08T14:07:40.448Z,11.50
2023-01-08T14:10:23.707Z,12.10
2023-01-08T14:13:25.768Z,12.57
2023-01-08T14:16:22.899Z,11.98
2023-01-08T14:26:14.428Z,16.67
2023-01-08T14:32:14.435Z,16.80
2023-01-08T14:35:02.364Z,19.02
2023-01-08T14:38:09.499Z,20.05
2023-01-08T14:41:22.928Z,23.17
2023-01-08T14:44:49.517Z,23.00
2023-01-08T14:48:01.446Z,23.35
2023-01-08T14:54:06.792Z,22.52
2023-01-08T15:00:41.964Z,25.60
2023-01-08T15:03:36.404Z,23.30
2023-01-08T15:06:12.268Z,22.05
2023-01-08T15:09:16.025Z,22.35
2023-01-08T15:12:02.353Z,19.80
2023-01-08T15:15:24.034Z,19.38
2023-01-08T15:18:23.585Z,18.52
2023-01-08T15:24:16.229Z,16.02
2023-01-08T15:27:02.178Z,17.90
2023-01-08T15:30:10.969Z,17.13
2023-01-08T15:33:27.933Z,18.10
2023-01-08T15:36:31.413Z,16.75
2023-01-08T15:39:34.981Z,18.85
2023-01-08T15:42:56.858Z,17.63
2023-01-08T15:46:18.372Z,16.95
2023-01-08T15:49:29.554Z,17.40
2023-01-08T15:52:48.376Z,17.23
2023-01-08T15:55:47.110Z,14.30
2023-01-08T15:58:37.390Z,13.18
2023-01-08T16:01:47.772Z,13.70
2023-01-08T16:04:39.949Z,14.35
2023-01-08T16:11:06.553Z,14.75
2023-01-08T16:18:13.311Z,14.30
2023-01-08T16:20:49.143Z,14.50
2023-01-08T16:23:28.122Z,14.75
2023-01-08T16:37:32.669Z,13.55
2023-01-08T16:41:08.277Z,14.23
2023-01-08T16:44:04.298Z,14.00
2023-01-08T16:47:18.165Z,14.98
2023-01-08T16:50:08.195Z,15.48
2023-01-08T16:53:13.625Z,15.00
2023-01-08T16:56:33.914Z,15.02
2023-01-08T16:59:24.280Z,14.40
2023-01-08T17:02:17.327Z,14.75
2023-01-08T17:08:48.590Z,12.77
2023-01-08T17:11:31.750Z,13.05
2023-01-08T17:20:24.113Z,16.70
2023-01-08T17:27:23.145Z,13.57
2023-01-08T17:29:58.802Z,11.85
2023-01-08T17:32:47.311Z,11.63
2023-01-08T17:39:02.767Z,10.98
2023-01-08T17:41:50.007Z,10.98
2023-01-08T17:44:33.235Z,9.75
2023-01-08T17:47:22.743Z,10.05
2023-01-08T17:50:02.870Z,9.82
2023-01-08T17:56:41.590Z,8.75
2023-01-08T17:59:19.595Z,8.57
2023-01-08T18:01:51.211Z,8.45
2023-01-08T18:05:09.973Z,8.73
2023-01-08T18:08:11.509Z,8.25
2023-01-08T18:17:54.406Z,6.15
2023-01-08T18:20:45.411Z,6.50
2023-01-08T18:26:54.804Z,6.80
2023-01-08T18:29:39.558Z,6.70
2023-01-08T18:32:29.738Z,6.43
2023-01-08T18:35:16.479Z,6.13
2023-01-08T18:37:59.891Z,6.00
2023-01-08T18:40:42.236Z,6.22
2023-01-08T18:47:30.215Z,5.18
2023-01-08T18:50:32.247Z,4.53
2023-01-08T18:56:57.212Z,4.90
2023-01-08T19:00:14.200Z,4.50
2023-01-08T19:02:47.714Z,4.10
2023-01-08T19:05:23.048Z,4.22
2023-01-08T19:07:56.428Z,4.05
2023-01-08T19:10:27.170Z,4.60
2023-01-08T19:12:57.913Z,4.07
2023-01-08T19:15:28.521Z,4.15
2023-01-08T19:18:01.461Z,4.03
2023-01-08T19:20:32.213Z,3.80
2023-01-08T19:23:02.883Z,3.80
2023-01-08T19:25:34.618Z,4.00
2023-01-08T19:28:05.320Z,3.97
2023-01-08T19:30:38.760Z,3.65
2023-01-08T19:33:13.140Z,3.92
2023-01-08T19:35:44.584Z,3.60
2023-01-08T19:38:15.896Z,3.53
2023-01-08T19:40:46.792Z,3.63
2023-01-08T19:43:37.313Z,3.60
2023-01-08T19:46:08.666Z,3.80
2023-01-08T19:48:43.260Z,3.78
2023-01-08T19:51:18.296Z,3.53
2023-01-08T19:53:49.007Z,3.53
2023-01-08T19:56:19.733Z,3.03
2023-01-08T19:58:55.159Z,2.97
2023-01-08T20:01:29.540Z,3.05
2023-01-08T20:04:02.047Z,3.03
2023-01-08T20:06:32.691Z,3.95
2023-01-08T20:09:04.858Z,4.47
2023-01-08T20:11:35.517Z,4.00
2023-01-08T20:14:08.325Z,3.90
2023-01-08T20:16:54.914Z,3.60
2023-01-08T20:19:29.483Z,6.00
2023-01-08T20:22:01.598Z,5.57
2023-01-08T20:24:32.381Z,8.23
2023-01-08T20:27:04.091Z,8.52
2023-01-08T20:29:39.851Z,8.70
2023-01-08T20:32:10.616Z,9.27
2023-01-08T20:34:43.197Z,10.48
2023-01-08T20:37:13.836Z,10.75
2023-01-08T20:39:56.294Z,10.68
2023-01-08T20:42:34.175Z,8.20
2023-01-08T20:45:07.358Z,10.27
2023-01-08T20:47:38.742Z,9.90
2023-01-08T20:50:19.751Z,8.73
2023-01-08T20:52:51.401Z,9.38
2023-01-08T20:55:22.835Z,9.75
2023-01-08T20:57:56.702Z,8.50
2023-01-08T21:00:27.693Z,8.75
2023-01-08T21:02:58.474Z,9.00
2023-01-08T21:05:31.072Z,9.10
2023-01-08T21:08:01.672Z,10.43
2023-01-08T21:10:32.326Z,10.55
2023-01-08T21:13:03.433Z,11.15
2023-01-08T21:15:34.432Z,12.88
2023-01-08T21:18:05.025Z,13.40
2023-01-08T21:20:37.915Z,14.95
2023-01-08T21:23:08.597Z,17.77
2023-01-08T21:25:39.258Z,19.73
2023-01-08T21:28:09.865Z,14.85
2023-01-08T21:30:40.585Z,14.80
2023-01-08T21:33:11.265Z,12.43
2023-01-08T21:35:43.417Z,11.50
2023-01-08T21:38:14.052Z,12.05
2023-01-08T21:40:44.679Z,10.82
2023-01-08T21:43:32.072Z,10.52
2023-01-08T21:46:05.064Z,9.35
2023-01-08T21:48:35.666Z,10.85
2023-01-08T21:51:28.319Z,10.45
2023-01-08T21:53:58.628Z,11.00
2023-01-08T21:56:30.061Z,10.70
2023-01-08T21:59:00.602Z,11.20
2023-01-08T22:01:31.522Z,11.00
2023-01-08T22:04:02.317Z,10.10
2023-01-08T22:06:35.643Z,9.80
2023-01-08T22:09:15.089Z,9.10
2023-01-08T22:11:48.993Z,7.47
2023-01-08T22:14:19.509Z,6.20
2023-01-08T22:16:50.132Z,6.43
2023-01-08T22:19:20.539Z,5.38
2023-01-08T22:21:52.780Z,5.80
2023-01-08T22:24:23.447Z,6.40
2023-01-08T22:26:54.021Z,5.82
2023-01-08T22:29:24.720Z,6.00
2023-01-08T22:31:55.376Z,5.70
2023-01-08T22:34:26.123Z,5.57
2023-01-08T22:36:58.367Z,6.35
2023-01-08T22:39:29.104Z,5.50
2023-01-08T22:42:00.061Z,5.47
2023-01-08T22:44:30.658Z,4.57
2023-01-08T22:47:03.530Z,12.20
2023-01-08T22:49:34.412Z,13.02
2023-01-08T22:52:06.801Z,11.60
2023-01-08T22:54:37.555Z,13.85
2023-01-08T22:57:08.225Z,13.10
2023-01-08T22:59:57.092Z,12.65
2023-01-08T23:02:45.991Z,8.05
2023-01-08T23:05:16.733Z,4.93
2023-01-08T23:07:49.167Z,4.45
2023-01-08T23:10:20.269Z,4.72
2023-01-08T23:12:52.257Z,4.07
2023-01-08T23:15:23.559Z,4.35
2023-01-08T23:17:54.095Z,4.07
2023-01-08T23:20:25.888Z,4.90
2023-01-08T23:22:57.971Z,3.80
2023-01-08T23:25:30.957Z,3.97
2023-01-08T23:28:01.528Z,4.05
2023-01-08T23:30:32.912Z,5.80
2023-01-08T23:33:03.493Z,6.65
2023-01-08T23:35:34.002Z,11.00
2023-01-08T23:38:06.309Z,12.88
2023-01-08T23:40:36.992Z,8.40
2023-01-08T23:43:07.560Z,5.25
2023-01-08T23:45:39.099Z,4.78
2023-01-08T23:48:10.489Z,5.10
2023-01-08T23:50:41.092Z,4.70
2023-01-08T23:53:13.203Z,4.55
2023-01-08T23:55:44.020Z,4.10
2023-01-08T23:58:15.034Z,3.38
